Latest METARs, TAFs and NOTAMs for TBPB


---------------------------------------------------------------------------
	(OBSERVATIONS)
TBPB 261300Z 09016KT 9999 SCT018 28/23 Q1016 NOSIG=
TBPB 261200Z 10016KT 9999 SCT018 SCT038 28/23 Q1015 NOSIG=
TBPB 261100Z 08014KT 9999 SCT018 27/22 Q1015 NOSIG=
---------------------------------------------------------------------------
	(TERMINAL AREA FORECAST)
TBPB 261100Z 2612/2712 09015KT 9999 SCT020
    TEMPO 2622/2704 SHRA BKN014 SCT038=
---------------------------------------------------------------------------
	(NOTAMS)


TBPB A0456/18 LOC ILS 'IBGI' RWY09 110.10MHZ SUB INTRP DUE GRASS
    CUTTING. SGL MAY BE UNREL. DO NOT USE. 1200-1600, 26 APR
    12:00 2018 UNTIL 27 APR 16:00 2018. CREATED: 21 APR 12:46
    2018

TBPB A0469/18 DVOR/DME "BGI" 112.7MHZ/CH74X SUBJ INTRP DUE GRASS
    CUTTING. SGL MAY BE UNREL. DO NOT USE. 30 APR 12:00 2018
    UNTIL 30 APR 16:00 2018. CREATED: 25 APR 22:21 2018

---------------------------------------------------------------------------